Time;durP1;ratioP1;P1;durP2;ratioP2;P2;SDS_P1;SDS_P2;PMS_P1;PMS_P2;Temp;Humidity;BMP_temperature;BMP_pressure;BME280_temperature;BME280_humidity;BME280_pressure;Samples;Min_cycle;Max_cycle;Signal;HPM_P1;HPM_P2
2022/06/14 00:02:10;;;;;;;7.40;0.80;;;;;;;12.81;60.33;100623.45;105828;1271;24315;-63
2022/06/14 00:04:59;;;;;;;4.50;1.00;;;;;;;12.76;60.25;100619.16;105650;1271;22695;-63
2022/06/14 00:07:49;;;;;;;6.30;1.00;;;;;;;12.71;60.52;100620.55;105778;1271;22786;-63
2022/06/14 00:10:22;;;;;;;7.00;1.30;;;;;;;12.68;60.64;100622.17;105837;1271;23877;-63
2022/06/14 00:12:53;;;;;;;4.70;0.90;;;;;;;12.66;60.66;100623.88;105923;1271;25324;-63
2022/06/14 00:15:25;;;;;;;12.10;1.10;;;;;;;12.64;60.59;100629.29;105853;1271;26068;-63
2022/06/14 00:17:57;;;;;;;5.00;1.10;;;;;;;12.61;60.68;100629.52;105732;1271;22545;-63
2022/06/14 00:20:30;;;;;;;6.10;0.80;;;;;;;12.60;60.61;100630.15;105772;1271;22541;-62
2022/06/14 00:23:02;;;;;;;3.70;0.90;;;;;;;12.60;60.91;100631.92;105714;1271;22548;-65
2022/06/14 00:25:37;;;;;;;8.10;0.90;;;;;;;12.58;60.93;100633.99;105821;1271;25264;-63
2022/06/14 00:28:11;;;;;;;3.50;0.60;;;;;;;12.56;61.05;100638.02;105978;1271;23387;-62
2022/06/14 00:30:45;;;;;;;4.50;0.60;;;;;;;12.52;61.23;100636.98;105888;1271;22634;-63
2022/06/14 00:33:17;;;;;;;5.30;0.90;;;;;;;12.48;61.39;100641.77;105894;1271;25325;-64
2022/06/14 00:35:49;;;;;;;5.00;0.80;;;;;;;12.45;61.39;100645.67;105757;1274;22534;-63
2022/06/14 00:38:21;;;;;;;3.50;0.50;;;;;;;12.43;61.60;100643.64;105803;1271;22541;-62
2022/06/14 00:40:56;;;;;;;4.60;0.60;;;;;;;12.42;61.59;100647.54;105747;1271;22549;-64
2022/06/14 00:43:29;;;;;;;3.20;0.60;;;;;;;12.42;61.79;100650.59;105948;1271;26198;-63
2022/06/14 00:46:17;;;;;;;4.60;0.60;;;;;;;12.42;61.78;100652.08;105871;1271;22551;-64
2022/06/14 00:49:00;;;;;;;3.10;0.60;;;;;;;12.43;61.83;100654.99;106136;1271;24435;-64
2022/06/14 00:51:36;;;;;;;2.20;0.50;;;;;;;12.42;61.97;100652.79;106035;1271;25348;-63
2022/06/14 00:54:15;;;;;;;4.40;0.60;;;;;;;12.41;62.06;100655.10;106078;1271;22540;-64
2022/06/14 00:56:51;;;;;;;5.30;0.40;;;;;;;12.41;62.21;100654.48;105810;1272;25605;-62
2022/06/14 00:59:29;;;;;;;2.80;0.50;;;;;;;12.41;62.23;100657.04;105876;1271;22533;-63
2022/06/14 01:02:10;;;;;;;2.80;0.50;;;;;;;12.39;62.34;100661.45;106048;1271;23523;-63
2022/06/14 01:04:44;;;;;;;1.90;0.40;;;;;;;12.39;62.20;100661.85;105842;1271;25306;-62
2022/06/14 01:07:21;;;;;;;3.80;0.50;;;;;;;12.37;62.30;100663.14;105860;1270;24235;-61
2022/06/14 01:09:56;;;;;;;5.60;0.60;;;;;;;12.35;62.38;100661.73;105765;1271;24298;-65
2022/06/14 01:12:32;;;;;;;4.20;0.50;;;;;;;12.33;62.59;100666.48;106080;1271;25345;-63
2022/06/14 01:15:09;;;;;;;2.10;0.30;;;;;;;12.31;62.64;100672.94;105663;1271;22553;-63
2022/06/14 01:17:45;;;;;;;4.50;0.40;;;;;;;12.29;62.63;100673.20;106166;1271;25325;-63
2022/06/14 01:20:20;;;;;;;3.00;0.50;;;;;;;12.26;62.66;100672.76;105772;1271;26869;-63
2022/06/14 01:22:53;;;;;;;6.30;0.60;;;;;;;12.24;62.85;100675.61;105913;1271;22544;-62
2022/06/14 01:25:27;;;;;;;2.80;0.60;;;;;;;12.21;62.95;100675.86;106009;1271;22554;-63
2022/06/14 01:28:01;;;;;;;3.10;0.60;;;;;;;12.18;63.02;100679.52;105903;1271;24306;-63
2022/06/14 01:30:37;;;;;;;4.90;0.60;;;;;;;12.15;63.07;100676.57;106073;1271;23459;-62
2022/06/14 01:33:14;;;;;;;3.10;0.50;;;;;;;12.12;63.20;100678.09;105827;1271;25307;-64
2022/06/14 01:35:54;;;;;;;2.40;0.50;;;;;;;12.09;63.39;100680.17;105990;1270;24373;-62
2022/06/14 01:38:26;;;;;;;4.10;0.60;;;;;;;12.06;63.28;100683.88;105846;1271;22618;-62
2022/06/14 01:41:05;;;;;;;5.50;0.90;;;;;;;12.05;63.31;100686.65;105948;1271;22659;-62
2022/06/14 01:43:53;;;;;;;7.00;0.60;;;;;;;12.03;63.35;100687.48;106178;1271;24346;-64
2022/06/14 01:46:27;;;;;;;4.00;0.70;;;;;;;12.01;63.45;100688.97;105783;1271;22533;-62
2022/06/14 01:52:08;;;;;;;3.80;0.50;;;;;;;11.94;63.75;100695.63;106274;1271;25429;-63
2022/06/14 01:54:50;;;;;;;4.40;0.60;;;;;;;11.90;63.73;100690.50;106027;1271;22618;-63
2022/06/14 01:57:31;;;;;;;5.40;0.70;;;;;;;11.87;63.90;100689.79;105745;1271;22526;-62
2022/06/14 02:00:07;;;;;;;3.20;0.70;;;;;;;11.85;63.84;100689.34;105847;1271;23192;-62
2022/06/14 02:02:47;;;;;;;4.80;0.80;;;;;;;11.82;64.05;100692.98;105754;1271;22560;-63
2022/06/14 02:05:26;;;;;;;7.60;0.90;;;;;;;11.79;64.23;100692.32;105909;1271;25315;-63
2022/06/14 02:08:05;;;;;;;5.60;0.60;;;;;;;11.75;64.31;100697.16;105748;1271;22526;-63
2022/06/14 02:10:42;;;;;;;3.90;0.60;;;;;;;11.70;64.49;100701.52;105877;1271;25489;-63
2022/06/14 02:13:17;;;;;;;10.00;0.60;;;;;;;11.65;64.61;100700.31;105892;1271;25311;-63
2022/06/14 02:15:54;;;;;;;4.00;0.60;;;;;;;11.60;64.81;100702.14;105850;1272;24177;-63
2022/06/14 02:18:32;;;;;;;3.30;0.70;;;;;;;11.56;64.98;100700.73;105823;1271;24303;-63
2022/06/14 02:21:09;;;;;;;5.30;0.80;;;;;;;11.51;65.19;100705.15;105961;1272;25242;-63
2022/06/14 02:23:47;;;;;;;6.90;0.80;;;;;;;11.47;65.18;100707.52;105828;1271;25527;-63
2022/06/14 02:26:24;;;;;;;3.60;0.60;;;;;;;11.43;65.33;100711.93;105930;1271;24614;-62
2022/06/14 02:28:59;;;;;;;5.40;0.70;;;;;;;11.40;65.52;100711.10;106058;1271;24312;-64
2022/06/14 02:31:37;;;;;;;7.40;0.70;;;;;;;11.34;65.52;100712.65;105941;1271;23225;-63
2022/06/14 02:34:13;;;;;;;10.30;1.10;;;;;;;11.31;65.57;100712.91;105825;1271;23882;-63
2022/06/14 02:36:49;;;;;;;4.50;0.60;;;;;;;11.28;65.81;100715.35;105997;1271;27285;-63
2022/06/14 02:39:24;;;;;;;4.30;0.60;;;;;;;11.25;65.96;100717.56;105869;1272;22710;-62
2022/06/14 02:42:02;;;;;;;4.70;0.80;;;;;;;11.23;66.03;100716.95;106026;1272;23166;-62
2022/06/14 02:44:39;;;;;;;4.50;0.90;;;;;;;11.19;66.02;100722.64;105975;1269;22564;-63
2022/06/14 02:47:19;;;;;;;4.90;0.90;;;;;;;11.17;66.25;100724.52;105811;1271;25576;-63
2022/06/14 02:49:57;;;;;;;5.40;0.80;;;;;;;11.15;66.30;100723.50;105834;1271;25291;-62
2022/06/14 02:52:34;;;;;;;6.80;0.70;;;;;;;11.10;66.67;100726.02;105744;1271;22531;-63
2022/06/14 02:55:14;;;;;;;5.00;1.00;;;;;;;11.05;66.56;100734.44;105844;1271;22588;-62
2022/06/14 02:58:09;;;;;;;8.60;1.20;;;;;;;11.00;66.98;100734.52;105627;1271;22544;-63
2022/06/14 03:01:05;;;;;;;5.50;0.80;;;;;;;10.96;67.17;100742.51;105596;1273;24321;-62
2022/06/14 03:03:58;;;;;;;6.90;1.00;;;;;;;10.92;67.36;100745.74;105729;1274;22551;-64
2022/06/14 03:06:57;;;;;;;4.50;0.80;;;;;;;10.91;67.48;100750.34;105646;1274;24441;-63
2022/06/14 03:09:47;;;;;;;6.10;1.00;;;;;;;10.91;67.64;100750.42;105718;1273;22557;-62
2022/06/14 03:12:43;;;;;;;4.30;0.80;;;;;;;10.91;67.81;100754.52;105573;1273;25532;-63
2022/06/14 03:15:40;;;;;;;4.70;1.20;;;;;;;10.90;67.83;100754.60;105693;1274;24390;-63
2022/06/14 03:18:37;;;;;;;6.30;0.70;;;;;;;10.91;67.93;100758.31;105611;1274;24279;-66
2022/06/14 03:21:36;;;;;;;5.10;1.00;;;;;;;10.89;68.02;100763.84;105793;1274;22581;-63
2022/06/14 03:24:15;;;;;;;5.70;0.80;;;;;;;10.88;68.20;100761.65;105874;1275;22538;-63
2022/06/14 03:26:56;;;;;;;5.80;0.90;;;;;;;10.88;68.37;100766.98;105859;1274;22550;-63
2022/06/14 03:29:36;;;;;;;5.50;0.90;;;;;;;10.86;68.56;100765.19;106023;1274;25253;-62
2022/06/14 03:32:16;;;;;;;7.30;1.20;;;;;;;10.83;68.82;100768.73;105853;1272;22594;-62
2022/06/14 03:34:52;;;;;;;4.80;1.10;;;;;;;10.84;68.77;100769.45;105876;1272;22561;-62
2022/06/14 03:37:24;;;;;;;3.10;0.80;;;;;;;10.84;69.07;100772.14;105798;1274;25408;-62
2022/06/14 03:40:00;;;;;;;6.20;1.10;;;;;;;10.86;69.12;100774.37;106000;1274;25355;-62
2022/06/14 03:42:33;;;;;;;6.50;1.10;;;;;;;10.89;69.26;100776.80;105926;1274;25249;-62
2022/06/14 03:45:07;;;;;;;6.00;0.80;;;;;;;10.91;69.44;100772.68;105922;1274;25493;-62
2022/06/14 03:47:39;;;;;;;7.10;0.80;;;;;;;10.95;69.56;100777.52;105878;1274;22558;-62
2022/06/14 03:50:17;;;;;;;4.10;0.90;;;;;;;11.00;69.79;100780.95;105747;1274;24240;-62
2022/06/14 03:52:58;;;;;;;6.40;1.10;;;;;;;11.07;69.83;100783.02;105674;1274;25266;-62
2022/06/14 03:55:46;;;;;;;4.60;0.90;;;;;;;11.18;69.71;100778.86;105690;1273;23472;-62
2022/06/14 03:58:39;;;;;;;5.10;0.80;;;;;;;11.26;69.91;100779.11;105748;1274;26591;-62
2022/06/14 04:01:17;;;;;;;5.80;0.90;;;;;;;11.34;69.89;100775.86;105727;1274;22541;-62
2022/06/14 04:04:05;;;;;;;5.60;0.80;;;;;;;11.41;69.94;100785.52;105713;1274;22583;-62
2022/06/14 04:06:47;;;;;;;8.40;0.80;;;;;;;11.47;69.85;100784.60;106072;1273;25248;-62
2022/06/14 04:09:28;;;;;;;3.60;0.70;;;;;;;11.51;69.80;100784.95;105930;1273;22749;-61
2022/06/14 04:12:12;;;;;;;3.90;0.70;;;;;;;11.56;69.83;100784.09;105809;1271;25326;-62
2022/06/14 04:14:57;;;;;;;5.80;0.70;;;;;;;11.60;69.77;100782.93;105783;1273;25337;-63
2022/06/14 04:17:39;;;;;;;4.10;0.70;;;;;;;11.65;69.79;100781.79;105769;1274;22650;-62
2022/06/14 04:20:16;;;;;;;6.40;1.00;;;;;;;11.70;69.95;100781.72;105732;1274;24240;-62
2022/06/14 04:22:56;;;;;;;8.40;1.20;;;;;;;11.76;69.79;100784.55;105938;1273;25090;-63
2022/06/14 04:25:35;;;;;;;4.50;0.80;;;;;;;11.82;69.79;100787.95;105716;1273;23092;-62
2022/06/14 04:28:16;;;;;;;6.20;0.60;;;;;;;11.86;69.73;100783.00;105825;1273;22750;-62
2022/06/14 04:30:57;;;;;;;5.30;0.70;;;;;;;11.91;69.58;100789.48;105728;1273;24265;-63
2022/06/14 04:33:35;;;;;;;3.60;0.60;;;;;;;11.95;69.52;100787.17;105996;1274;25252;-63
2022/06/14 04:36:11;;;;;;;5.50;0.80;;;;;;;11.99;69.30;100786.65;105797;1274;24090;-63
2022/06/14 04:38:47;;;;;;;9.00;1.20;;;;;;;12.03;69.37;100784.48;105714;1273;25262;-62
2022/06/14 04:41:24;;;;;;;5.40;1.30;;;;;;;12.06;69.21;100783.55;105940;1273;24325;-62
2022/06/14 04:44:00;;;;;;;5.50;0.90;;;;;;;12.09;69.28;100784.02;105652;1273;25423;-61
2022/06/14 04:46:35;;;;;;;7.30;1.10;;;;;;;12.11;69.16;100785.34;105805;1272;22570;-63
2022/06/14 04:49:12;;;;;;;5.60;0.80;;;;;;;12.13;69.25;100781.20;105690;1273;24256;-62
2022/06/14 04:51:49;;;;;;;2.80;0.70;;;;;;;12.14;69.13;100781.06;105586;1273;22572;-61
2022/06/14 04:54:27;;;;;;;3.90;0.80;;;;;;;12.14;69.05;100785.21;105897;1273;22535;-62
2022/06/14 04:57:05;;;;;;;7.60;0.80;;;;;;;12.16;69.23;100785.40;105784;1273;23092;-63
2022/06/14 04:59:43;;;;;;;4.80;1.00;;;;;;;12.22;69.30;100789.38;105887;1273;23081;-63
2022/06/14 05:02:21;;;;;;;2.60;0.70;;;;;;;12.30;69.29;100787.27;105723;1273;22536;-63
2022/06/14 05:04:56;;;;;;;2.40;0.60;;;;;;;12.41;69.26;100787.43;105803;1273;24420;-63
2022/06/14 05:07:31;;;;;;;4.70;0.80;;;;;;;12.48;69.00;100789.52;105947;1273;25321;-62
2022/06/14 05:10:07;;;;;;;7.50;0.70;;;;;;;12.52;68.88;100789.70;106017;1273;22538;-64
2022/06/14 05:12:47;;;;;;;7.10;0.70;;;;;;;12.56;68.95;100789.70;106274;1272;22628;-63
2022/06/14 05:15:24;;;;;;;2.60;0.70;;;;;;;12.60;68.84;100784.96;105748;1273;22551;-62
2022/06/14 05:18:00;;;;;;;3.90;0.80;;;;;;;12.71;69.05;100789.95;105850;1273;25503;-62
2022/06/14 05:20:40;;;;;;;7.30;0.80;;;;;;;12.82;68.89;100791.65;105657;1273;23916;-63
2022/06/14 05:23:21;;;;;;;2.00;0.40;;;;;;;12.93;68.55;100787.77;105843;1273;22664;-62
2022/06/14 05:26:05;;;;;;;4.60;0.60;;;;;;;13.02;68.38;100786.26;105953;1273;22867;-62
2022/06/14 05:28:44;;;;;;;3.10;0.40;;;;;;;13.11;68.46;100787.46;105768;1273;22700;-61
2022/06/14 05:31:24;;;;;;;5.10;0.70;;;;;;;13.21;68.27;100786.11;105785;1272;24958;-62
2022/06/14 05:34:05;;;;;;;3.20;0.50;;;;;;;13.33;68.13;100790.80;105798;1271;25214;-62
2022/06/14 05:36:43;;;;;;;2.80;0.50;;;;;;;13.45;67.87;100794.05;105741;1272;25481;-63
2022/06/14 05:39:19;;;;;;;4.70;0.60;;;;;;;13.54;67.64;100796.19;105637;1273;23427;-62
2022/06/14 05:41:58;;;;;;;5.10;0.50;;;;;;;13.64;67.64;100794.45;106005;1273;22560;-65
2022/06/14 05:44:37;;;;;;;3.80;0.60;;;;;;;13.77;67.11;100798.17;105611;1271;23394;-62
2022/06/14 05:47:14;;;;;;;10.80;0.70;;;;;;;13.84;66.74;100802.19;105656;1273;24394;-62
2022/06/14 05:49:52;;;;;;;3.90;0.50;;;;;;;13.89;66.83;100800.32;105714;1273;26047;-63
2022/06/14 05:52:29;;;;;;;7.30;0.50;;;;;;;13.95;66.85;100800.52;105721;1273;25527;-63
2022/06/14 05:55:09;;;;;;;4.10;0.70;;;;;;;14.00;66.33;100798.09;106366;1272;26420;-63
2022/06/14 05:57:45;;;;;;;4.10;0.60;;;;;;;14.07;66.17;100802.06;105928;1271;22538;-63
2022/06/14 06:00:24;;;;;;;3.70;0.50;;;;;;;14.12;65.96;100800.70;106113;1271;25398;-62
2022/06/14 06:03:05;;;;;;;5.90;0.60;;;;;;;14.20;66.15;100806.42;106062;1273;22545;-62
2022/06/14 06:05:41;;;;;;;7.00;0.50;;;;;;;14.34;66.19;100806.64;105799;1273;22544;-62
2022/06/14 06:08:25;;;;;;;4.20;0.70;;;;;;;14.42;65.91;100808.58;106170;1273;24430;-63
2022/06/14 06:11:02;;;;;;;2.90;0.60;;;;;;;14.46;65.49;100810.67;105747;1273;22574;-63
2022/06/14 06:13:39;;;;;;;6.40;0.50;;;;;;;14.43;65.27;100808.13;105677;1273;22587;-62
2022/06/14 06:16:15;;;;;;;2.30;0.50;;;;;;;14.40;65.19;100813.15;105980;1273;27062;-63
2022/06/14 06:18:54;;;;;;;5.70;0.60;;;;;;;14.37;64.99;100815.73;106129;1273;25256;-63
2022/06/14 06:21:32;;;;;;;2.70;0.50;;;;;;;14.32;64.71;100820.01;106106;1273;22528;-63
2022/06/14 06:24:11;;;;;;;4.00;0.40;;;;;;;14.28;64.66;100820.08;105935;1273;22528;-63
2022/06/14 06:26:46;;;;;;;5.20;0.40;;;;;;;14.25;64.77;100815.48;105792;1273;22657;-62
2022/06/14 06:29:24;;;;;;;4.30;0.40;;;;;;;14.29;65.13;100821.32;105730;1273;25629;-62
2022/06/14 06:31:58;;;;;;;5.70;0.50;;;;;;;14.33;64.80;100825.25;105789;1273;26738;-64
2022/06/14 06:34:29;;;;;;;3.90;0.50;;;;;;;14.36;64.40;100826.23;105812;1273;25365;-63
2022/06/14 06:37:07;;;;;;;5.60;0.90;;;;;;;14.38;64.46;100821.27;105832;1273;22634;-63
2022/06/14 06:39:45;;;;;;;5.30;0.50;;;;;;;14.46;64.52;100819.75;105915;1273;25374;-63
2022/06/14 06:42:23;;;;;;;4.80;0.70;;;;;;;14.54;64.50;100824.21;105757;1273;22551;-63
2022/06/14 06:45:00;;;;;;;3.30;0.40;;;;;;;14.65;64.19;100822.29;105771;1273;26522;-63
2022/06/14 06:47:36;;;;;;;4.80;0.50;;;;;;;14.78;64.17;100825.20;105540;1273;22574;-63
2022/06/14 06:50:21;;;;;;;6.60;0.70;;;;;;;14.87;63.87;100823.35;106577;1273;22642;-62
2022/06/14 06:53:06;;;;;;;3.90;0.50;;;;;;;14.96;63.70;100821.83;105746;1272;23089;-63
2022/06/14 06:55:47;;;;;;;5.20;1.00;;;;;;;15.04;62.97;100824.14;105703;1273;22550;-62
2022/06/14 06:58:22;;;;;;;;;;;;;;;15.05;63.15;100824.42;105753;1273;22545;-62
2022/06/14 07:00:57;;;;;;;9.70;0.50;;;;;;;15.12;63.08;100822.85;105778;1273;25355;-63
2022/06/14 07:03:46;;;;;;;5.30;0.50;;;;;;;15.19;62.76;100820.42;105679;1273;22546;-62
2022/06/14 07:06:23;;;;;;;6.00;0.60;;;;;;;15.30;62.36;100821.94;106227;1273;22590;-63
2022/06/14 07:08:59;;;;;;;6.10;0.60;;;;;;;15.37;62.82;100823.45;105869;1273;22544;-63
2022/06/14 07:11:39;;;;;;;6.40;0.60;;;;;;;15.50;62.82;100822.35;105936;1273;22534;-64
2022/06/14 07:14:16;;;;;;;3.40;0.40;;;;;;;15.61;62.48;100827.41;105891;1273;25003;-63
2022/06/14 07:16:54;;;;;;;2.40;0.30;;;;;;;15.65;61.29;100827.13;105803;1273;23094;-63
2022/06/14 07:19:38;;;;;;;9.10;0.50;;;;;;;15.69;61.27;100819.17;105828;1273;22533;-62
2022/06/14 07:22:18;;;;;;;7.00;0.50;;;;;;;15.70;61.27;100818.88;105879;1273;22774;-63
2022/06/14 07:24:54;;;;;;;;;;;;;;;15.72;61.21;100812.70;105755;1273;25324;-62
2022/06/14 07:27:30;;;;;;;6.70;0.50;;;;;;;15.75;61.08;100813.80;101664;1273;5544352;-63
2022/06/14 07:30:09;;;;;;;5.00;0.60;;;;;;;15.80;61.40;100811.58;105860;1273;22816;-64
2022/06/14 07:32:46;;;;;;;5.90;0.40;;;;;;;15.94;61.04;100809.43;105710;1273;25317;-63
2022/06/14 07:35:23;;;;;;;3.90;0.70;;;;;;;16.09;60.61;100803.98;105762;1273;22560;-64
2022/06/14 07:38:06;;;;;;;4.10;0.70;;;;;;;16.17;60.34;100802.28;105798;1271;24302;-64
2022/06/14 07:40:44;;;;;;;4.70;0.40;;;;;;;16.23;59.91;100801.19;105868;1273;24045;-63
2022/06/14 07:43:24;;;;;;;4.80;0.50;;;;;;;16.36;59.54;100810.36;105808;1273;22538;-64
2022/06/14 07:45:57;;;;;;;4.00;0.50;;;;;;;16.41;58.74;100802.60;105800;1273;25371;-63
2022/06/14 07:48:34;;;;;;;4.80;0.30;;;;;;;16.37;58.35;100810.36;105911;1273;22548;-64
2022/06/14 07:51:10;;;;;;;4.20;0.40;;;;;;;16.40;57.78;100813.21;105990;1273;22622;-64
2022/06/14 07:53:46;;;;;;;5.20;0.60;;;;;;;16.43;57.48;100807.79;105802;1273;25358;-63
2022/06/14 07:56:22;;;;;;;4.00;0.50;;;;;;;16.50;56.97;100804.96;105786;1273;25051;-63
2022/06/14 07:58:58;;;;;;;4.30;0.50;;;;;;;16.54;57.36;100810.05;105732;1272;22564;-64
2022/06/14 08:01:35;;;;;;;5.00;0.50;;;;;;;16.52;57.54;100811.94;105766;1273;22808;-64
2022/06/14 08:04:13;;;;;;;2.40;0.50;;;;;;;16.48;57.21;100810.89;105717;1273;25356;-63
2022/06/14 08:06:48;;;;;;;5.70;0.60;;;;;;;16.46;57.03;100816.77;105869;1273;22550;-62
2022/06/14 08:09:24;;;;;;;3.60;0.40;;;;;;;16.44;56.58;100808.55;105805;1273;22550;-63
2022/06/14 08:11:58;;;;;;;1.80;0.20;;;;;;;16.48;56.26;100821.20;105993;1273;22528;-64
2022/06/14 08:14:35;;;;;;;2.50;0.30;;;;;;;16.60;56.37;100815.40;106112;1273;22535;-63
2022/06/14 08:17:12;;;;;;;5.20;0.50;;;;;;;16.72;55.69;100816.63;105880;1273;22562;-63
2022/06/14 08:19:48;;;;;;;5.20;0.60;;;;;;;16.78;54.97;100814.71;105807;1273;22553;-63
2022/06/14 08:22:27;;;;;;;5.90;0.50;;;;;;;16.85;55.08;100814.31;105939;1273;22561;-64
2022/06/14 08:25:07;;;;;;;5.40;0.40;;;;;;;16.80;53.88;100819.33;105765;1273;25247;-64
2022/06/14 08:27:42;;;;;;;5.40;0.50;;;;;;;16.70;54.87;100817.13;105874;1273;22584;-64
2022/06/14 08:30:19;;;;;;;6.80;1.00;;;;;;;16.64;54.50;100816.04;105974;1273;22553;-64
2022/06/14 08:32:57;;;;;;;7.30;0.50;;;;;;;16.61;54.70;100808.23;106148;1273;22573;-66
2022/06/14 08:35:33;;;;;;;5.40;0.50;;;;;;;16.67;54.74;100809.55;105876;1273;23073;-64
2022/06/14 08:38:13;;;;;;;5.30;0.40;;;;;;;16.79;54.47;100803.38;105917;1273;22583;-63
2022/06/14 08:40:58;;;;;;;6.30;0.50;;;;;;;16.92;54.59;100801.05;106061;1273;22540;-65
2022/06/14 08:43:35;;;;;;;3.70;0.50;;;;;;;17.05;54.00;100800.35;105771;1273;25366;-64
2022/06/14 08:46:21;;;;;;;2.70;0.40;;;;;;;17.02;53.70;100806.34;105974;1273;22541;-63
2022/06/14 08:49:13;;;;;;;6.60;0.60;;;;;;;16.93;53.58;100805.36;106012;1273;22630;-63
2022/06/14 08:51:59;;;;;;;14.50;0.60;;;;;;;16.84;53.95;100802.57;105899;1273;22613;-63
2022/06/14 08:55:03;;;;;;;4.30;0.60;;;;;;;16.79;53.58;100807.94;105923;1273;22621;-64
2022/06/14 08:57:55;;;;;;;5.10;0.60;;;;;;;16.77;54.07;100809.07;105727;1273;24234;-65
2022/06/14 09:00:47;;;;;;;2.70;0.20;;;;;;;16.88;53.27;100801.34;106097;1273;22554;-64
2022/06/14 09:03:56;;;;;;;4.60;0.60;;;;;;;17.06;52.05;100798.20;105993;1273;25992;-63
2022/06/14 09:06:56;;;;;;;4.60;0.40;;;;;;;17.27;51.62;100790.08;105966;1273;23818;-64
2022/06/14 09:09:53;;;;;;;16.70;0.80;;;;;;;17.43;50.78;100781.55;106001;1273;22601;-63
2022/06/14 09:12:50;;;;;;;4.80;0.40;;;;;;;17.48;51.05;100783.66;106064;1273;25954;-63
2022/06/14 09:15:56;;;;;;;7.60;0.80;;;;;;;17.45;50.88;100790.06;106122;1272;25362;-64
2022/06/14 09:18:47;;;;;;;5.60;0.50;;;;;;;17.34;50.86;100788.59;105706;1273;25451;-63
2022/06/14 09:21:31;;;;;;;3.10;0.40;;;;;;;17.16;50.87;100795.04;105709;1273;24244;-65
2022/06/14 09:24:20;;;;;;;6.60;0.80;;;;;;;17.14;51.38;100795.90;105728;1273;25326;-64
2022/06/14 09:27:15;;;;;;;2.60;0.30;;;;;;;17.28;50.56;100787.29;105955;1273;25395;-64
2022/06/14 09:30:28;;;;;;;6.40;0.40;;;;;;;17.49;50.56;100778.52;105844;1273;22540;-64
2022/06/14 09:33:38;;;;;;;7.40;0.40;;;;;;;17.72;50.05;100786.43;105781;1273;22974;-66
2022/06/14 09:36:46;;;;;;;3.40;0.40;;;;;;;17.71;49.92;100791.83;106276;1271;22528;-64
2022/06/14 09:39:48;;;;;;;4.90;1.40;;;;;;;17.72;50.09;100790.95;105660;1271;25359;-63
2022/06/14 09:42:45;;;;;;;4.40;0.30;;;;;;;17.92;49.22;100795.13;105653;1273;25337;-64
2022/06/14 09:45:45;;;;;;;3.90;0.40;;;;;;;18.01;48.54;100793.15;105716;1273;23806;-64
2022/06/14 09:48:40;;;;;;;;;;;;;;;17.94;48.29;100793.42;105590;1277;22645;-65
2022/06/14 09:52:00;;;;;;;2.50;0.30;;;;;;;17.89;48.43;100791.29;105555;1277;25324;-65
2022/06/14 09:55:25;;;;;;;6.40;0.50;;;;;;;17.97;48.71;100788.17;105448;1277;22889;-64
2022/06/14 09:58:32;;;;;;;5.20;0.50;;;;;;;18.03;48.34;100790.38;105736;1277;25243;-65
2022/06/14 10:01:15;;;;;;;3.50;0.30;;;;;;;17.93;47.48;100797.90;105060;1281;22557;-65
2022/06/14 10:04:19;;;;;;;2.30;0.30;;;;;;;17.76;46.86;100795.98;105258;1281;25277;-64
2022/06/14 10:07:17;;;;;;;5.90;0.30;;;;;;;17.73;47.10;100787.05;104756;1284;25336;-64
2022/06/14 10:10:15;;;;;;;5.20;0.30;;;;;;;17.83;46.50;100787.91;105134;1284;22995;-65
2022/06/14 10:13:25;;;;;;;6.80;0.40;;;;;;;17.86;46.35;100786.00;104842;1284;24263;-65
2022/06/14 10:16:05;;;;;;;3.20;0.40;;;;;;;17.84;46.32;100788.93;104805;1285;25555;-64
2022/06/14 10:18:54;;;;;;;5.20;0.40;;;;;;;17.80;46.06;100788.32;104773;1284;22580;-65
2022/06/14 10:21:34;;;;;;;1.80;0.30;;;;;;;17.78;45.81;100785.66;104766;1284;22615;-65
2022/06/14 10:24:16;;;;;;;3.60;0.30;;;;;;;17.91;44.50;100789.17;104841;1284;25549;-64
2022/06/14 10:30:00;;;;;;;0.90;0.20;;;;;;;18.09;44.46;100782.09;105276;1280;24509;-64
2022/06/14 10:33:01;;;;;;;4.00;0.20;;;;;;;18.00;43.96;100783.30;105493;1280;22706;-65
2022/06/14 10:35:42;;;;;;;4.20;0.20;;;;;;;17.90;43.89;100781.12;105277;1280;22563;-65
2022/06/14 10:38:49;;;;;;;6.30;0.30;;;;;;;17.91;43.49;100774.33;105484;1276;25406;-64
2022/06/14 10:41:31;;;;;;;2.10;0.20;;;;;;;18.03;44.20;100770.60;105084;1282;25313;-64
2022/06/14 10:44:15;;;;;;;2.30;0.40;;;;;;;18.19;43.39;100771.16;105473;1276;25309;-64
2022/06/14 10:47:01;;;;;;;3.70;0.20;;;;;;;18.33;42.93;100773.48;105801;1276;24790;-65
2022/06/14 10:50:02;;;;;;;4.80;0.30;;;;;;;18.45;42.63;100770.77;105634;1276;25412;-65
2022/06/14 10:53:01;;;;;;;1.80;0.20;;;;;;;18.71;42.39;100769.00;105543;1276;22793;-64
2022/06/14 10:55:52;;;;;;;3.40;0.30;;;;;;;18.83;41.57;100775.45;105711;1275;22544;-65
2022/06/14 10:59:05;;;;;;;1.20;0.20;;;;;;;18.86;41.39;100776.64;105426;1277;22538;-65
2022/06/14 11:01:47;;;;;;;4.10;0.30;;;;;;;18.93;40.62;100776.38;104964;1281;26728;-66
2022/06/14 11:04:29;;;;;;;3.40;0.30;;;;;;;18.96;40.28;100771.27;105456;1282;25826;-64
2022/06/14 11:07:25;;;;;;;4.70;0.30;;;;;;;19.05;40.69;100762.19;104995;1282;23012;-67
2022/06/14 11:10:31;;;;;;;1.70;0.20;;;;;;;19.20;40.37;100761.72;104962;1282;24251;-65
2022/06/14 11:13:13;;;;;;;2.70;0.30;;;;;;;19.21;39.92;100765.05;105303;1281;24244;-65
2022/06/14 11:15:50;;;;;;;1.90;0.20;;;;;;;19.19;40.02;100762.65;105030;1282;24428;-65
2022/06/14 11:18:55;;;;;;;2.60;0.30;;;;;;;19.19;39.93;100765.85;105117;1276;25335;-65
2022/06/14 11:21:52;;;;;;;4.20;0.30;;;;;;;19.27;40.28;100764.29;105603;1276;22538;-66
2022/06/14 11:24:31;;;;;;;4.40;0.50;;;;;;;19.39;40.03;100761.40;105451;1276;24306;-65
2022/06/14 11:27:11;;;;;;;4.30;0.30;;;;;;;19.43;40.06;100760.73;105778;1276;22655;-65
2022/06/14 11:29:49;;;;;;;4.00;0.30;;;;;;;19.45;40.25;100770.95;105490;1276;23818;-64
2022/06/14 11:32:29;;;;;;;4.10;0.40;;;;;;;19.47;39.71;100773.30;105508;1276;24411;-65
2022/06/14 11:35:09;;;;;;;4.60;0.30;;;;;;;19.45;39.51;100765.70;105733;1276;24353;-65
2022/06/14 11:38:00;;;;;;;2.80;0.30;;;;;;;19.35;39.49;100762.54;105869;1273;22504;-65
2022/06/14 11:40:32;;;;;;;2.30;0.20;;;;;;;19.26;38.67;100765.38;105844;1273;24254;-67
2022/06/14 11:43:27;;;;;;;2.50;0.30;;;;;;;19.16;37.70;100767.02;105851;1273;25268;-66
2022/06/14 11:46:05;;;;;;;0.70;0.10;;;;;;;19.12;38.53;100754.84;106043;1273;22609;-66
2022/06/14 11:48:42;;;;;;;5.60;0.30;;;;;;;19.26;38.95;100761.46;105743;1271;22654;-65
2022/06/14 11:51:23;;;;;;;1.90;0.30;;;;;;;19.35;38.80;100764.20;105744;1273;22541;-66
2022/06/14 11:54:20;;;;;;;6.80;0.40;;;;;;;19.31;38.88;100760.75;105762;1273;24402;-66
2022/06/14 11:57:14;;;;;;;2.30;0.20;;;;;;;19.22;38.72;100767.61;105915;1273;23749;-65
2022/06/14 12:00:13;;;;;;;3.30;0.30;;;;;;;19.15;38.68;100760.02;105815;1271;23987;-65
2022/06/14 12:02:57;;;;;;;4.30;0.50;;;;;;;19.19;38.55;100757.88;106035;1271;22606;-65
2022/06/14 12:08:27;;;;;;;3.10;0.30;;;;;;;19.24;38.57;100760.56;105977;1261;22545;-50
2022/06/14 12:11:00;;;;;;;;;;;;;;;19.14;38.58;100762.49;105697;1271;25203;-50
2022/06/14 12:14:05;;;;;;;4.90;0.20;;;;;;;19.13;38.64;100759.27;105836;1271;22676;-50
2022/06/14 12:16:41;;;;;;;4.50;0.20;;;;;;;19.07;38.22;100763.06;105592;1271;22541;-49
2022/06/14 12:19:23;;;;;;;4.10;0.30;;;;;;;18.92;38.40;100758.21;105823;1271;24574;-53
2022/06/14 12:22:26;;;;;;;1.40;0.20;;;;;;;18.81;38.26;100752.95;105825;1271;22540;-53
2022/06/14 12:27:52;;;;;;;2.70;0.20;;;;;;;18.71;38.42;100755.77;105819;1271;22552;-51
2022/06/14 12:30:28;;;;;;;4.90;0.30;;;;;;;18.78;38.83;100754.46;105869;1271;22573;-56
2022/06/14 12:33:07;;;;;;;2.30;0.20;;;;;;;18.85;38.55;100751.69;105998;1271;22541;-54
2022/06/14 12:35:50;;;;;;;1.70;0.20;;;;;;;18.82;38.44;100747.80;105753;1271;25303;-53
2022/06/14 12:38:26;;;;;;;5.20;0.30;;;;;;;18.83;38.71;100750.31;105691;1271;24589;-50